sensor_id;sensor_type;location;lat;lon;timestamp;P1;durP1;ratioP1;P2;durP2;ratioP2
7171;SDS011;3627;46.544;14.944;2023-08-07T00:01:28;1.52;;;1.42;;
7171;SDS011;3627;46.544;14.944;2023-08-07T00:03:54;1.58;;;1.48;;
7171;SDS011;3627;46.544;14.944;2023-08-07T00:06:20;1.50;;;1.40;;
7171;SDS011;3627;46.544;14.944;2023-08-07T00:08:47;1.83;;;1.40;;
7171;SDS011;3627;46.544;14.944;2023-08-07T00:11:13;1.30;;;1.30;;
7171;SDS011;3627;46.544;14.944;2023-08-07T00:13:41;2.45;;;1.52;;
7171;SDS011;3627;46.544;14.944;2023-08-07T00:16:07;1.52;;;1.42;;
7171;SDS011;3627;46.544;14.944;2023-08-07T00:18:35;1.60;;;1.60;;
7171;SDS011;3627;46.544;14.944;2023-08-07T00:21:01;1.60;;;1.50;;
7171;SDS011;3627;46.544;14.944;2023-08-07T00:23:28;2.72;;;1.55;;
7171;SDS011;3627;46.544;14.944;2023-08-07T00:25:54;1.65;;;1.55;;
7171;SDS011;3627;46.544;14.944;2023-08-07T00:28:20;3.03;;;1.73;;
7171;SDS011;3627;46.544;14.944;2023-08-07T00:30:48;1.50;;;1.40;;
7171;SDS011;3627;46.544;14.944;2023-08-07T00:33:14;2.05;;;1.67;;
7171;SDS011;3627;46.544;14.944;2023-08-07T00:35:41;1.70;;;1.60;;
7171;SDS011;3627;46.544;14.944;2023-08-07T00:38:07;1.92;;;1.67;;
7171;SDS011;3627;46.544;14.944;2023-08-07T00:40:37;1.30;;;1.30;;
7171;SDS011;3627;46.544;14.944;2023-08-07T00:43:04;1.60;;;1.50;;
7171;SDS011;3627;46.544;14.944;2023-08-07T00:45:31;1.80;;;1.70;;
7171;SDS011;3627;46.544;14.944;2023-08-07T00:48:01;1.70;;;1.60;;
7171;SDS011;3627;46.544;14.944;2023-08-07T00:50:27;2.83;;;2.00;;
7171;SDS011;3627;46.544;14.944;2023-08-07T00:52:54;2.03;;;1.92;;
7171;SDS011;3627;46.544;14.944;2023-08-07T00:55:20;1.98;;;1.88;;
7171;SDS011;3627;46.544;14.944;2023-08-07T00:57:47;2.33;;;2.00;;
7171;SDS011;3627;46.544;14.944;2023-08-07T01:00:13;2.20;;;2.10;;
7171;SDS011;3627;46.544;14.944;2023-08-07T01:02:41;3.05;;;2.10;;
7171;SDS011;3627;46.544;14.944;2023-08-07T01:05:09;1.85;;;1.75;;
7171;SDS011;3627;46.544;14.944;2023-08-07T01:07:35;1.80;;;1.70;;
7171;SDS011;3627;46.544;14.944;2023-08-07T01:10:01;1.80;;;1.70;;
7171;SDS011;3627;46.544;14.944;2023-08-07T01:12:29;3.05;;;1.67;;
7171;SDS011;3627;46.544;14.944;2023-08-07T01:14:58;2.22;;;2.03;;
7171;SDS011;3627;46.544;14.944;2023-08-07T01:17:26;2.00;;;1.90;;
7171;SDS011;3627;46.544;14.944;2023-08-07T01:19:53;2.00;;;1.90;;
7171;SDS011;3627;46.544;14.944;2023-08-07T01:22:20;2.78;;;2.13;;
7171;SDS011;3627;46.544;14.944;2023-08-07T01:24:48;2.83;;;2.10;;
7171;SDS011;3627;46.544;14.944;2023-08-07T01:27:18;1.92;;;1.80;;
7171;SDS011;3627;46.544;14.944;2023-08-07T01:29:47;2.28;;;2.08;;
7171;SDS011;3627;46.544;14.944;2023-08-07T01:32:19;1.85;;;1.75;;
7171;SDS011;3627;46.544;14.944;2023-08-07T01:34:47;3.90;;;1.92;;
7171;SDS011;3627;46.544;14.944;2023-08-07T01:37:14;3.28;;;1.70;;
7171;SDS011;3627;46.544;14.944;2023-08-07T01:39:42;3.10;;;1.95;;
7171;SDS011;3627;46.544;14.944;2023-08-07T01:42:09;3.65;;;1.75;;
7171;SDS011;3627;46.544;14.944;2023-08-07T01:44:36;1.80;;;1.42;;
7171;SDS011;3627;46.544;14.944;2023-08-07T01:47:02;1.60;;;1.50;;
7171;SDS011;3627;46.544;14.944;2023-08-07T01:49:29;1.80;;;1.70;;
7171;SDS011;3627;46.544;14.944;2023-08-07T01:51:55;1.90;;;1.60;;
7171;SDS011;3627;46.544;14.944;2023-08-07T01:54:22;1.60;;;1.50;;
7171;SDS011;3627;46.544;14.944;2023-08-07T01:56:49;2.55;;;1.60;;
7171;SDS011;3627;46.544;14.944;2023-08-07T01:59:16;1.90;;;1.65;;
7171;SDS011;3627;46.544;14.944;2023-08-07T02:01:42;1.45;;;1.35;;
7171;SDS011;3627;46.544;14.944;2023-08-07T02:04:08;1.35;;;1.30;;
7171;SDS011;3627;46.544;14.944;2023-08-07T02:06:35;2.25;;;1.50;;
7171;SDS011;3627;46.544;14.944;2023-08-07T02:09:01;2.08;;;1.85;;
7171;SDS011;3627;46.544;14.944;2023-08-07T02:11:27;5.35;;;1.40;;
7171;SDS011;3627;46.544;14.944;2023-08-07T02:13:55;1.40;;;1.30;;
7171;SDS011;3627;46.544;14.944;2023-08-07T02:16:21;1.42;;;1.33;;
7171;SDS011;3627;46.544;14.944;2023-08-07T02:18:48;2.42;;;1.40;;
7171;SDS011;3627;46.544;14.944;2023-08-07T02:21:14;1.65;;;1.55;;
7171;SDS011;3627;46.544;14.944;2023-08-07T02:23:40;1.35;;;1.35;;
7171;SDS011;3627;46.544;14.944;2023-08-07T02:26:07;1.60;;;1.50;;
7171;SDS011;3627;46.544;14.944;2023-08-07T02:28:33;2.28;;;1.38;;
7171;SDS011;3627;46.544;14.944;2023-08-07T02:31:01;1.30;;;1.27;;
7171;SDS011;3627;46.544;14.944;2023-08-07T02:33:27;1.50;;;1.40;;
7171;SDS011;3627;46.544;14.944;2023-08-07T02:35:55;1.95;;;1.73;;
7171;SDS011;3627;46.544;14.944;2023-08-07T02:38:21;1.30;;;1.30;;
7171;SDS011;3627;46.544;14.944;2023-08-07T02:40:48;1.58;;;1.48;;
7171;SDS011;3627;46.544;14.944;2023-08-07T02:43:14;1.63;;;1.33;;
7171;SDS011;3627;46.544;14.944;2023-08-07T02:45:40;1.50;;;1.40;;
7171;SDS011;3627;46.544;14.944;2023-08-07T02:48:08;1.50;;;1.40;;
7171;SDS011;3627;46.544;14.944;2023-08-07T02:50:35;1.50;;;1.40;;
7171;SDS011;3627;46.544;14.944;2023-08-07T02:53:01;1.85;;;1.40;;
7171;SDS011;3627;46.544;14.944;2023-08-07T02:55:28;1.40;;;1.40;;
7171;SDS011;3627;46.544;14.944;2023-08-07T02:57:54;1.33;;;1.33;;
7171;SDS011;3627;46.544;14.944;2023-08-07T03:00:20;1.40;;;1.30;;
7171;SDS011;3627;46.544;14.944;2023-08-07T03:02:47;1.70;;;1.60;;
7171;SDS011;3627;46.544;14.944;2023-08-07T03:05:14;1.92;;;1.83;;
7171;SDS011;3627;46.544;14.944;2023-08-07T03:07:41;2.00;;;1.70;;
7171;SDS011;3627;46.544;14.944;2023-08-07T03:10:07;1.55;;;1.45;;
7171;SDS011;3627;46.544;14.944;2023-08-07T03:12:34;2.15;;;1.50;;
7171;SDS011;3627;46.544;14.944;2023-08-07T03:15:00;1.60;;;1.50;;
7171;SDS011;3627;46.544;14.944;2023-08-07T03:17:26;1.70;;;1.42;;
7171;SDS011;3627;46.544;14.944;2023-08-07T03:19:53;2.88;;;2.50;;
7171;SDS011;3627;46.544;14.944;2023-08-07T03:22:20;2.10;;;1.60;;
7171;SDS011;3627;46.544;14.944;2023-08-07T03:24:47;4.60;;;3.17;;
7171;SDS011;3627;46.544;14.944;2023-08-07T03:27:13;2.65;;;2.38;;
7171;SDS011;3627;46.544;14.944;2023-08-07T03:29:40;1.65;;;1.55;;
7171;SDS011;3627;46.544;14.944;2023-08-07T03:32:06;2.00;;;1.63;;
7171;SDS011;3627;46.544;14.944;2023-08-07T03:34:33;1.55;;;1.45;;
7171;SDS011;3627;46.544;14.944;2023-08-07T03:36:59;2.85;;;1.50;;
7171;SDS011;3627;46.544;14.944;2023-08-07T03:39:27;1.48;;;1.38;;
7171;SDS011;3627;46.544;14.944;2023-08-07T03:41:53;1.60;;;1.50;;
7171;SDS011;3627;46.544;14.944;2023-08-07T03:44:19;1.88;;;1.45;;
7171;SDS011;3627;46.544;14.944;2023-08-07T03:46:46;1.83;;;1.73;;
7171;SDS011;3627;46.544;14.944;2023-08-07T03:49:12;1.60;;;1.50;;
7171;SDS011;3627;46.544;14.944;2023-08-07T03:51:39;1.90;;;1.80;;
7171;SDS011;3627;46.544;14.944;2023-08-07T03:54:05;1.67;;;1.58;;
7171;SDS011;3627;46.544;14.944;2023-08-07T03:56:33;1.73;;;1.63;;
7171;SDS011;3627;46.544;14.944;2023-08-07T03:59:01;1.70;;;1.60;;
7171;SDS011;3627;46.544;14.944;2023-08-07T04:01:27;2.35;;;2.00;;
7171;SDS011;3627;46.544;14.944;2023-08-07T04:03:54;2.38;;;2.00;;
7171;SDS011;3627;46.544;14.944;2023-08-07T04:06:21;1.73;;;1.63;;
7171;SDS011;3627;46.544;14.944;2023-08-07T04:08:47;2.33;;;1.60;;
7171;SDS011;3627;46.544;14.944;2023-08-07T04:11:13;1.60;;;1.50;;
7171;SDS011;3627;46.544;14.944;2023-08-07T04:13:41;1.60;;;1.50;;
7171;SDS011;3627;46.544;14.944;2023-08-07T04:16:07;1.60;;;1.50;;
7171;SDS011;3627;46.544;14.944;2023-08-07T04:18:34;1.60;;;1.50;;
7171;SDS011;3627;46.544;14.944;2023-08-07T04:21:00;2.90;;;1.50;;
7171;SDS011;3627;46.544;14.944;2023-08-07T04:23:27;1.88;;;1.77;;
7171;SDS011;3627;46.544;14.944;2023-08-07T04:25:53;1.77;;;1.63;;
7171;SDS011;3627;46.544;14.944;2023-08-07T04:28:19;1.60;;;1.50;;
7171;SDS011;3627;46.544;14.944;2023-08-07T04:30:49;1.70;;;1.60;;
7171;SDS011;3627;46.544;14.944;2023-08-07T04:33:16;2.00;;;1.90;;
7171;SDS011;3627;46.544;14.944;2023-08-07T04:35:43;1.83;;;1.73;;
7171;SDS011;3627;46.544;14.944;2023-08-07T04:38:10;1.73;;;1.63;;
7171;SDS011;3627;46.544;14.944;2023-08-07T04:40:36;1.75;;;1.65;;
7171;SDS011;3627;46.544;14.944;2023-08-07T04:43:03;1.70;;;1.60;;
7171;SDS011;3627;46.544;14.944;2023-08-07T04:45:29;3.70;;;1.60;;
7171;SDS011;3627;46.544;14.944;2023-08-07T04:47:57;1.58;;;1.48;;
7171;SDS011;3627;46.544;14.944;2023-08-07T04:50:23;2.00;;;1.90;;
7171;SDS011;3627;46.544;14.944;2023-08-07T04:52:50;2.70;;;1.60;;
7171;SDS011;3627;46.544;14.944;2023-08-07T04:55:16;2.25;;;1.52;;
7171;SDS011;3627;46.544;14.944;2023-08-07T04:57:42;2.25;;;2.05;;
7171;SDS011;3627;46.544;14.944;2023-08-07T05:00:09;2.17;;;1.83;;
7171;SDS011;3627;46.544;14.944;2023-08-07T05:02:35;1.75;;;1.65;;
7171;SDS011;3627;46.544;14.944;2023-08-07T05:05:03;1.70;;;1.60;;
7171;SDS011;3627;46.544;14.944;2023-08-07T05:07:32;1.83;;;1.50;;
7171;SDS011;3627;46.544;14.944;2023-08-07T05:09:58;1.30;;;1.30;;
7171;SDS011;3627;46.544;14.944;2023-08-07T05:12:25;1.60;;;1.50;;
7171;SDS011;3627;46.544;14.944;2023-08-07T05:14:51;1.40;;;1.30;;
7171;SDS011;3627;46.544;14.944;2023-08-07T05:17:18;3.08;;;1.60;;
7171;SDS011;3627;46.544;14.944;2023-08-07T05:19:44;1.60;;;1.50;;
7171;SDS011;3627;46.544;14.944;2023-08-07T05:22:12;4.10;;;1.95;;
7171;SDS011;3627;46.544;14.944;2023-08-07T05:24:38;2.28;;;1.60;;
7171;SDS011;3627;46.544;14.944;2023-08-07T05:27:05;2.28;;;1.30;;
7171;SDS011;3627;46.544;14.944;2023-08-07T05:29:33;1.50;;;1.40;;
7171;SDS011;3627;46.544;14.944;2023-08-07T05:31:59;1.92;;;1.00;;
7171;SDS011;3627;46.544;14.944;2023-08-07T05:34:25;1.88;;;1.23;;
7171;SDS011;3627;46.544;14.944;2023-08-07T05:36:52;1.00;;;1.00;;
7171;SDS011;3627;46.544;14.944;2023-08-07T05:39:19;1.00;;;0.95;;
7171;SDS011;3627;46.544;14.944;2023-08-07T05:41:46;2.00;;;1.20;;
7171;SDS011;3627;46.544;14.944;2023-08-07T05:44:12;2.85;;;1.20;;
7171;SDS011;3627;46.544;14.944;2023-08-07T05:46:38;0.95;;;0.95;;
7171;SDS011;3627;46.544;14.944;2023-08-07T05:49:05;2.22;;;0.85;;
7171;SDS011;3627;46.544;14.944;2023-08-07T05:51:31;4.13;;;1.20;;
7171;SDS011;3627;46.544;14.944;2023-08-07T05:53:57;1.65;;;1.15;;
7171;SDS011;3627;46.544;14.944;2023-08-07T05:56:25;6.18;;;1.20;;
7171;SDS011;3627;46.544;14.944;2023-08-07T05:58:52;1.90;;;1.08;;
7171;SDS011;3627;46.544;14.944;2023-08-07T06:01:18;2.42;;;0.93;;
7171;SDS011;3627;46.544;14.944;2023-08-07T06:03:44;1.52;;;1.00;;
7171;SDS011;3627;46.544;14.944;2023-08-07T06:06:11;1.10;;;0.60;;
7171;SDS011;3627;46.544;14.944;2023-08-07T06:08:37;1.17;;;0.50;;
7171;SDS011;3627;46.544;14.944;2023-08-07T06:11:04;1.30;;;0.85;;
7171;SDS011;3627;46.544;14.944;2023-08-07T06:13:34;1.73;;;1.02;;
7171;SDS011;3627;46.544;14.944;2023-08-07T06:16:01;3.42;;;0.90;;
7171;SDS011;3627;46.544;14.944;2023-08-07T06:18:27;1.02;;;0.70;;
7171;SDS011;3627;46.544;14.944;2023-08-07T06:20:54;1.70;;;0.70;;
7171;SDS011;3627;46.544;14.944;2023-08-07T06:23:21;1.77;;;1.00;;
7171;SDS011;3627;46.544;14.944;2023-08-07T06:25:48;1.75;;;0.75;;
7171;SDS011;3627;46.544;14.944;2023-08-07T06:28:14;1.13;;;0.80;;
7171;SDS011;3627;46.544;14.944;2023-08-07T06:30:42;2.92;;;0.70;;
7171;SDS011;3627;46.544;14.944;2023-08-07T06:33:08;1.00;;;0.90;;
7171;SDS011;3627;46.544;14.944;2023-08-07T06:35:37;2.70;;;0.70;;
7171;SDS011;3627;46.544;14.944;2023-08-07T06:38:03;2.28;;;0.90;;
7171;SDS011;3627;46.544;14.944;2023-08-07T06:40:29;1.90;;;0.85;;
7171;SDS011;3627;46.544;14.944;2023-08-07T06:42:56;0.65;;;0.65;;
7171;SDS011;3627;46.544;14.944;2023-08-07T06:45:22;2.97;;;0.90;;
7171;SDS011;3627;46.544;14.944;2023-08-07T06:47:50;0.70;;;0.70;;
7171;SDS011;3627;46.544;14.944;2023-08-07T06:50:16;1.13;;;0.75;;
7171;SDS011;3627;46.544;14.944;2023-08-07T06:52:43;0.82;;;0.80;;
7171;SDS011;3627;46.544;14.944;2023-08-07T06:55:09;1.45;;;0.90;;
7171;SDS011;3627;46.544;14.944;2023-08-07T06:57:35;4.00;;;1.13;;
7171;SDS011;3627;46.544;14.944;2023-08-07T07:00:02;2.45;;;1.10;;
7171;SDS011;3627;46.544;14.944;2023-08-07T07:02:29;1.20;;;1.10;;
7171;SDS011;3627;46.544;14.944;2023-08-07T07:04:56;0.85;;;0.82;;
7171;SDS011;3627;46.544;14.944;2023-08-07T07:07:23;2.13;;;0.70;;
7171;SDS011;3627;46.544;14.944;2023-08-07T07:09:49;2.72;;;0.90;;
7171;SDS011;3627;46.544;14.944;2023-08-07T07:12:15;1.88;;;0.93;;
7171;SDS011;3627;46.544;14.944;2023-08-07T07:14:42;2.90;;;0.95;;
7171;SDS011;3627;46.544;14.944;2023-08-07T07:17:08;1.00;;;0.90;;
7171;SDS011;3627;46.544;14.944;2023-08-07T07:19:34;0.98;;;0.98;;
7171;SDS011;3627;46.544;14.944;2023-08-07T07:22:02;0.90;;;0.90;;
7171;SDS011;3627;46.544;14.944;2023-08-07T07:24:29;0.80;;;0.80;;
7171;SDS011;3627;46.544;14.944;2023-08-07T07:26:55;2.03;;;1.15;;
7171;SDS011;3627;46.544;14.944;2023-08-07T07:29:21;1.00;;;0.90;;
7171;SDS011;3627;46.544;14.944;2023-08-07T07:31:50;1.00;;;1.00;;
7171;SDS011;3627;46.544;14.944;2023-08-07T07:34:16;1.20;;;1.10;;
7171;SDS011;3627;46.544;14.944;2023-08-07T07:36:42;1.15;;;1.05;;
7171;SDS011;3627;46.544;14.944;2023-08-07T07:39:10;0.82;;;0.82;;
7171;SDS011;3627;46.544;14.944;2023-08-07T07:41:37;2.03;;;1.00;;
7171;SDS011;3627;46.544;14.944;2023-08-07T07:44:03;1.08;;;0.98;;
7171;SDS011;3627;46.544;14.944;2023-08-07T07:46:29;2.58;;;1.02;;
7171;SDS011;3627;46.544;14.944;2023-08-07T07:48:56;1.00;;;0.90;;
7171;SDS011;3627;46.544;14.944;2023-08-07T07:51:23;1.73;;;1.20;;
7171;SDS011;3627;46.544;14.944;2023-08-07T07:53:49;1.10;;;1.10;;
7171;SDS011;3627;46.544;14.944;2023-08-07T07:56:17;1.13;;;1.02;;
7171;SDS011;3627;46.544;14.944;2023-08-07T07:58:43;2.05;;;1.00;;
7171;SDS011;3627;46.544;14.944;2023-08-07T08:01:09;1.08;;;1.08;;
7171;SDS011;3627;46.544;14.944;2023-08-07T08:03:36;1.10;;;1.00;;
7171;SDS011;3627;46.544;14.944;2023-08-07T08:06:02;0.90;;;0.90;;
7171;SDS011;3627;46.544;14.944;2023-08-07T08:08:29;1.00;;;1.00;;
7171;SDS011;3627;46.544;14.944;2023-08-07T08:10:55;1.05;;;1.00;;
7171;SDS011;3627;46.544;14.944;2023-08-07T08:13:23;0.93;;;0.90;;
7171;SDS011;3627;46.544;14.944;2023-08-07T08:15:50;1.80;;;0.98;;
7171;SDS011;3627;46.544;14.944;2023-08-07T08:18:16;2.15;;;0.90;;
7171;SDS011;3627;46.544;14.944;2023-08-07T08:20:43;1.42;;;1.17;;
7171;SDS011;3627;46.544;14.944;2023-08-07T08:23:09;4.85;;;1.30;;
7171;SDS011;3627;46.544;14.944;2023-08-07T08:25:35;4.25;;;1.35;;
7171;SDS011;3627;46.544;14.944;2023-08-07T08:28:02;0.95;;;0.90;;
7171;SDS011;3627;46.544;14.944;2023-08-07T08:30:30;1.05;;;0.77;;
7171;SDS011;3627;46.544;14.944;2023-08-07T08:32:56;1.17;;;0.80;;
7171;SDS011;3627;46.544;14.944;2023-08-07T08:35:22;0.82;;;0.75;;
7171;SDS011;3627;46.544;14.944;2023-08-07T08:37:49;0.85;;;0.85;;
7171;SDS011;3627;46.544;14.944;2023-08-07T08:40:15;2.20;;;0.70;;
7171;SDS011;3627;46.544;14.944;2023-08-07T08:42:44;2.22;;;1.10;;
7171;SDS011;3627;46.544;14.944;2023-08-07T08:45:12;3.92;;;1.00;;
7171;SDS011;3627;46.544;14.944;2023-08-07T08:47:40;2.50;;;0.90;;
7171;SDS011;3627;46.544;14.944;2023-08-07T08:50:07;2.92;;;0.70;;
7171;SDS011;3627;46.544;14.944;2023-08-07T08:52:34;2.40;;;1.05;;
7171;SDS011;3627;46.544;14.944;2023-08-07T08:55:01;4.30;;;1.10;;
7171;SDS011;3627;46.544;14.944;2023-08-07T08:57:28;1.13;;;0.95;;
7171;SDS011;3627;46.544;14.944;2023-08-07T08:59:55;1.33;;;0.98;;
7171;SDS011;3627;46.544;14.944;2023-08-07T09:02:22;1.10;;;0.90;;
7171;SDS011;3627;46.544;14.944;2023-08-07T09:04:50;1.83;;;1.50;;
7171;SDS011;3627;46.544;14.944;2023-08-07T09:07:16;4.88;;;1.10;;
7171;SDS011;3627;46.544;14.944;2023-08-07T09:09:46;1.80;;;0.70;;
7171;SDS011;3627;46.544;14.944;2023-08-07T09:12:13;1.70;;;0.95;;
7171;SDS011;3627;46.544;14.944;2023-08-07T09:14:42;0.77;;;0.70;;
7171;SDS011;3627;46.544;14.944;2023-08-07T09:17:09;0.47;;;0.47;;
7171;SDS011;3627;46.544;14.944;2023-08-07T09:19:36;1.17;;;0.80;;
7171;SDS011;3627;46.544;14.944;2023-08-07T09:22:05;0.73;;;0.73;;
7171;SDS011;3627;46.544;14.944;2023-08-07T09:24:32;0.90;;;0.75;;
7171;SDS011;3627;46.544;14.944;2023-08-07T09:26:58;1.33;;;0.70;;
7171;SDS011;3627;46.544;14.944;2023-08-07T09:29:25;1.40;;;0.70;;
7171;SDS011;3627;46.544;14.944;2023-08-07T09:31:53;2.47;;;0.60;;
7171;SDS011;3627;46.544;14.944;2023-08-07T09:34:20;1.08;;;0.70;;
7171;SDS011;3627;46.544;14.944;2023-08-07T09:36:46;5.25;;;0.70;;
7171;SDS011;3627;46.544;14.944;2023-08-07T09:39:14;1.10;;;0.85;;
7171;SDS011;3627;46.544;14.944;2023-08-07T09:41:40;0.77;;;0.73;;
7171;SDS011;3627;46.544;14.944;2023-08-07T09:44:07;2.72;;;0.95;;
7171;SDS011;3627;46.544;14.944;2023-08-07T09:46:40;1.75;;;0.85;;
7171;SDS011;3627;46.544;14.944;2023-08-07T09:49:06;1.27;;;0.70;;
7171;SDS011;3627;46.544;14.944;2023-08-07T09:51:40;1.02;;;0.98;;
7171;SDS011;3627;46.544;14.944;2023-08-07T09:54:07;0.80;;;0.80;;
7171;SDS011;3627;46.544;14.944;2023-08-07T09:56:35;4.70;;;1.15;;
7171;SDS011;3627;46.544;14.944;2023-08-07T09:59:03;2.45;;;1.08;;
7171;SDS011;3627;46.544;14.944;2023-08-07T10:01:29;2.95;;;1.00;;
7171;SDS011;3627;46.544;14.944;2023-08-07T10:03:55;2.33;;;0.80;;
7171;SDS011;3627;46.544;14.944;2023-08-07T10:06:22;1.00;;;0.77;;
7171;SDS011;3627;46.544;14.944;2023-08-07T10:08:49;2.00;;;0.93;;
7171;SDS011;3627;46.544;14.944;2023-08-07T10:11:15;0.88;;;0.88;;
7171;SDS011;3627;46.544;14.944;2023-08-07T10:13:43;0.50;;;0.50;;
7171;SDS011;3627;46.544;14.944;2023-08-07T10:16:11;6.30;;;1.95;;
7171;SDS011;3627;46.544;14.944;2023-08-07T10:18:37;1.60;;;1.15;;
7171;SDS011;3627;46.544;14.944;2023-08-07T10:21:05;2.55;;;0.90;;
7171;SDS011;3627;46.544;14.944;2023-08-07T10:23:31;3.33;;;1.33;;
7171;SDS011;3627;46.544;14.944;2023-08-07T10:25:58;1.30;;;0.98;;
7171;SDS011;3627;46.544;14.944;2023-08-07T10:28:25;2.65;;;1.50;;
7171;SDS011;3627;46.544;14.944;2023-08-07T10:30:53;2.45;;;0.95;;
7171;SDS011;3627;46.544;14.944;2023-08-07T10:33:20;4.68;;;1.50;;
7171;SDS011;3627;46.544;14.944;2023-08-07T10:35:47;1.95;;;1.20;;
7171;SDS011;3627;46.544;14.944;2023-08-07T10:38:14;2.65;;;1.65;;
7171;SDS011;3627;46.544;14.944;2023-08-07T10:41:00;1.20;;;1.10;;
7171;SDS011;3627;46.544;14.944;2023-08-07T10:43:27;0.73;;;0.70;;
7171;SDS011;3627;46.544;14.944;2023-08-07T10:45:55;1.38;;;0.70;;
7171;SDS011;3627;46.544;14.944;2023-08-07T10:48:27;1.30;;;0.90;;
7171;SDS011;3627;46.544;14.944;2023-08-07T10:50:55;2.63;;;1.05;;
7171;SDS011;3627;46.544;14.944;2023-08-07T10:53:28;1.42;;;0.77;;
7171;SDS011;3627;46.544;14.944;2023-08-07T10:55:54;1.02;;;0.80;;
7171;SDS011;3627;46.544;14.944;2023-08-07T10:58:23;0.70;;;0.70;;
7171;SDS011;3627;46.544;14.944;2023-08-07T11:00:49;2.33;;;1.10;;
7171;SDS011;3627;46.544;14.944;2023-08-07T11:03:21;2.05;;;0.70;;
7171;SDS011;3627;46.544;14.944;2023-08-07T11:05:52;1.10;;;1.00;;
7171;SDS011;3627;46.544;14.944;2023-08-07T11:08:21;3.58;;;1.10;;
7171;SDS011;3627;46.544;14.944;2023-08-07T11:10:47;1.20;;;0.98;;
7171;SDS011;3627;46.544;14.944;2023-08-07T11:13:14;1.13;;;0.85;;
7171;SDS011;3627;46.544;14.944;2023-08-07T11:15:40;1.63;;;1.08;;
7171;SDS011;3627;46.544;14.944;2023-08-07T11:18:07;3.22;;;1.73;;
7171;SDS011;3627;46.544;14.944;2023-08-07T11:20:35;2.53;;;1.25;;
7171;SDS011;3627;46.544;14.944;2023-08-07T11:23:04;2.60;;;1.25;;
7171;SDS011;3627;46.544;14.944;2023-08-07T11:25:30;1.63;;;1.10;;
7171;SDS011;3627;46.544;14.944;2023-08-07T11:27:56;5.22;;;1.20;;
7171;SDS011;3627;46.544;14.944;2023-08-07T11:30:23;3.47;;;1.08;;
7171;SDS011;3627;46.544;14.944;2023-08-07T11:32:49;1.15;;;1.05;;
7171;SDS011;3627;46.544;14.944;2023-08-07T11:35:16;1.45;;;1.08;;
7171;SDS011;3627;46.544;14.944;2023-08-07T11:37:46;1.02;;;0.90;;
7171;SDS011;3627;46.544;14.944;2023-08-07T11:40:13;1.33;;;1.10;;
7171;SDS011;3627;46.544;14.944;2023-08-07T11:42:39;1.20;;;0.93;;
7171;SDS011;3627;46.544;14.944;2023-08-07T11:45:06;2.78;;;1.13;;
7171;SDS011;3627;46.544;14.944;2023-08-07T11:47:33;1.02;;;0.98;;
7171;SDS011;3627;46.544;14.944;2023-08-07T11:50:01;2.58;;;0.73;;
7171;SDS011;3627;46.544;14.944;2023-08-07T11:52:27;1.00;;;1.00;;
7171;SDS011;3627;46.544;14.944;2023-08-07T11:54:55;1.17;;;1.00;;
7171;SDS011;3627;46.544;14.944;2023-08-07T11:57:22;1.23;;;1.00;;
7171;SDS011;3627;46.544;14.944;2023-08-07T11:59:51;2.00;;;1.00;;
7171;SDS011;3627;46.544;14.944;2023-08-07T12:02:21;2.85;;;1.20;;
7171;SDS011;3627;46.544;14.944;2023-08-07T12:04:48;1.33;;;1.13;;
7171;SDS011;3627;46.544;14.944;2023-08-07T12:07:16;1.20;;;1.00;;
7171;SDS011;3627;46.544;14.944;2023-08-07T12:09:44;1.33;;;1.00;;
7171;SDS011;3627;46.544;14.944;2023-08-07T12:12:12;1.02;;;0.95;;
7171;SDS011;3627;46.544;14.944;2023-08-07T12:14:38;1.35;;;1.25;;
7171;SDS011;3627;46.544;14.944;2023-08-07T12:17:08;2.00;;;1.05;;
7171;SDS011;3627;46.544;14.944;2023-08-07T12:19:37;1.45;;;1.00;;
7171;SDS011;3627;46.544;14.944;2023-08-07T12:22:05;1.88;;;1.17;;
7171;SDS011;3627;46.544;14.944;2023-08-07T12:24:32;1.20;;;1.10;;
7171;SDS011;3627;46.544;14.944;2023-08-07T12:26:59;3.13;;;1.20;;
7171;SDS011;3627;46.544;14.944;2023-08-07T12:29:27;1.38;;;1.17;;
7171;SDS011;3627;46.544;14.944;2023-08-07T12:31:54;0.90;;;0.90;;
7171;SDS011;3627;46.544;14.944;2023-08-07T12:34:20;1.80;;;1.15;;
7171;SDS011;3627;46.544;14.944;2023-08-07T12:36:47;1.45;;;1.35;;
7171;SDS011;3627;46.544;14.944;2023-08-07T12:39:13;2.17;;;1.13;;
7171;SDS011;3627;46.544;14.944;2023-08-07T12:41:40;1.27;;;1.17;;
7171;SDS011;3627;46.544;14.944;2023-08-07T12:44:06;1.73;;;1.20;;
7171;SDS011;3627;46.544;14.944;2023-08-07T12:46:34;2.97;;;1.23;;
7171;SDS011;3627;46.544;14.944;2023-08-07T12:49:03;1.50;;;1.40;;
7171;SDS011;3627;46.544;14.944;2023-08-07T12:51:29;2.33;;;1.60;;
7171;SDS011;3627;46.544;14.944;2023-08-07T12:53:55;1.38;;;1.27;;
7171;SDS011;3627;46.544;14.944;2023-08-07T12:56:22;2.22;;;1.05;;
7171;SDS011;3627;46.544;14.944;2023-08-07T12:58:48;2.05;;;1.30;;
7171;SDS011;3627;46.544;14.944;2023-08-07T13:01:15;3.00;;;1.13;;
7171;SDS011;3627;46.544;14.944;2023-08-07T13:03:43;1.13;;;1.02;;
7171;SDS011;3627;46.544;14.944;2023-08-07T13:06:09;1.48;;;1.35;;
7171;SDS011;3627;46.544;14.944;2023-08-07T13:08:36;1.77;;;1.10;;
7171;SDS011;3627;46.544;14.944;2023-08-07T13:11:03;1.60;;;1.08;;
7171;SDS011;3627;46.544;14.944;2023-08-07T13:13:29;3.03;;;1.27;;
7171;SDS011;3627;46.544;14.944;2023-08-07T13:15:56;3.35;;;1.30;;
7171;SDS011;3627;46.544;14.944;2023-08-07T13:18:22;1.55;;;1.00;;
7171;SDS011;3627;46.544;14.944;2023-08-07T13:20:50;1.25;;;1.15;;
7171;SDS011;3627;46.544;14.944;2023-08-07T13:23:16;1.92;;;1.35;;
7171;SDS011;3627;46.544;14.944;2023-08-07T13:25:43;2.45;;;1.42;;
7171;SDS011;3627;46.544;14.944;2023-08-07T13:28:09;1.88;;;1.30;;
7171;SDS011;3627;46.544;14.944;2023-08-07T13:30:35;2.55;;;1.45;;
7171;SDS011;3627;46.544;14.944;2023-08-07T13:33:02;3.08;;;1.50;;
7171;SDS011;3627;46.544;14.944;2023-08-07T13:35:28;1.95;;;1.10;;
7171;SDS011;3627;46.544;14.944;2023-08-07T13:37:56;2.95;;;1.77;;
7171;SDS011;3627;46.544;14.944;2023-08-07T13:40:22;1.63;;;1.50;;
7171;SDS011;3627;46.544;14.944;2023-08-07T13:42:49;3.78;;;1.67;;
7171;SDS011;3627;46.544;14.944;2023-08-07T13:45:15;2.40;;;1.42;;
7171;SDS011;3627;46.544;14.944;2023-08-07T13:47:41;2.03;;;1.20;;
7171;SDS011;3627;46.544;14.944;2023-08-07T13:50:08;1.67;;;1.30;;
7171;SDS011;3627;46.544;14.944;2023-08-07T13:52:37;3.60;;;1.30;;
7171;SDS011;3627;46.544;14.944;2023-08-07T13:55:06;1.50;;;1.35;;
7171;SDS011;3627;46.544;14.944;2023-08-07T13:57:33;3.35;;;1.48;;
7171;SDS011;3627;46.544;14.944;2023-08-07T14:00:00;1.60;;;1.50;;
7171;SDS011;3627;46.544;14.944;2023-08-07T14:02:26;1.23;;;1.13;;
7171;SDS011;3627;46.544;14.944;2023-08-07T14:04:53;1.38;;;1.27;;
7171;SDS011;3627;46.544;14.944;2023-08-07T14:07:22;1.10;;;1.10;;
7171;SDS011;3627;46.544;14.944;2023-08-07T14:09:48;2.17;;;1.40;;
7171;SDS011;3627;46.544;14.944;2023-08-07T14:12:16;3.03;;;1.85;;
7171;SDS011;3627;46.544;14.944;2023-08-07T14:14:42;2.55;;;1.10;;
7171;SDS011;3627;46.544;14.944;2023-08-07T14:17:09;2.75;;;1.20;;
7171;SDS011;3627;46.544;14.944;2023-08-07T14:19:35;1.55;;;1.17;;
7171;SDS011;3627;46.544;14.944;2023-08-07T14:22:01;7.28;;;1.77;;
7171;SDS011;3627;46.544;14.944;2023-08-07T14:24:28;4.47;;;1.50;;
7171;SDS011;3627;46.544;14.944;2023-08-07T14:26:54;1.40;;;1.30;;
7171;SDS011;3627;46.544;14.944;2023-08-07T14:29:22;2.75;;;1.08;;
7171;SDS011;3627;46.544;14.944;2023-08-07T14:31:48;1.20;;;1.10;;
7171;SDS011;3627;46.544;14.944;2023-08-07T14:34:15;1.75;;;1.20;;
7171;SDS011;3627;46.544;14.944;2023-08-07T14:36:41;1.60;;;1.02;;
7171;SDS011;3627;46.544;14.944;2023-08-07T14:39:07;2.17;;;1.40;;
7171;SDS011;3627;46.544;14.944;2023-08-07T14:41:34;1.80;;;1.10;;
7171;SDS011;3627;46.544;14.944;2023-08-07T14:44:00;1.45;;;1.33;;
7171;SDS011;3627;46.544;14.944;2023-08-07T14:46:28;2.72;;;1.10;;
7171;SDS011;3627;46.544;14.944;2023-08-07T14:48:54;2.28;;;1.05;;
7171;SDS011;3627;46.544;14.944;2023-08-07T14:51:21;9.90;;;2.00;;
7171;SDS011;3627;46.544;14.944;2023-08-07T14:53:47;0.77;;;0.77;;
7171;SDS011;3627;46.544;14.944;2023-08-07T14:56:14;2.45;;;1.10;;
7171;SDS011;3627;46.544;14.944;2023-08-07T14:58:40;1.73;;;1.20;;